sensor_id;sensor_type;location;lat;lon;timestamp;temperature;humidity
52415;DHT22;38340;52.964;6.086;2024-01-10T00:01:34;-4.40;99.90
52415;DHT22;38340;52.964;6.086;2024-01-10T00:04:00;-4.40;99.90
52415;DHT22;38340;52.964;6.086;2024-01-10T00:06:25;-4.40;99.90
52415;DHT22;38340;52.964;6.086;2024-01-10T00:08:51;-4.50;99.90
52415;DHT22;38340;52.964;6.086;2024-01-10T00:11:17;-4.50;99.90
52415;DHT22;38340;52.964;6.086;2024-01-10T00:13:43;-4.50;99.90
52415;DHT22;38340;52.964;6.086;2024-01-10T00:16:11;-4.50;99.90
52415;DHT22;38340;52.964;6.086;2024-01-10T00:18:37;-4.50;99.90
52415;DHT22;38340;52.964;6.086;2024-01-10T00:21:04;-4.60;99.90
52415;DHT22;38340;52.964;6.086;2024-01-10T00:23:30;-4.60;99.90
52415;DHT22;38340;52.964;6.086;2024-01-10T00:25:55;-4.60;99.90
52415;DHT22;38340;52.964;6.086;2024-01-10T00:28:21;-4.70;99.90
52415;DHT22;38340;52.964;6.086;2024-01-10T00:30:47;-4.70;99.90
52415;DHT22;38340;52.964;6.086;2024-01-10T00:33:15;-4.70;99.90
52415;DHT22;38340;52.964;6.086;2024-01-10T00:35:41;-4.80;99.90
52415;DHT22;38340;52.964;6.086;2024-01-10T00:38:07;-4.80;99.90
52415;DHT22;38340;52.964;6.086;2024-01-10T00:40:33;-4.90;99.90
52415;DHT22;38340;52.964;6.086;2024-01-10T00:42:58;-4.90;99.90
52415;DHT22;38340;52.964;6.086;2024-01-10T00:45:24;-5.00;99.90
52415;DHT22;38340;52.964;6.086;2024-01-10T00:47:50;-5.00;99.90
52415;DHT22;38340;52.964;6.086;2024-01-10T00:50:16;-5.00;99.90
52415;DHT22;38340;52.964;6.086;2024-01-10T00:52:45;-5.00;99.90
52415;DHT22;38340;52.964;6.086;2024-01-10T00:55:11;-5.10;99.90
52415;DHT22;38340;52.964;6.086;2024-01-10T00:57:37;-5.10;99.90
52415;DHT22;38340;52.964;6.086;2024-01-10T01:00:07;-5.10;99.90
52415;DHT22;38340;52.964;6.086;2024-01-10T01:02:32;-5.10;99.90
52415;DHT22;38340;52.964;6.086;2024-01-10T01:04:58;-5.10;99.90
52415;DHT22;38340;52.964;6.086;2024-01-10T01:07:26;-5.10;99.90
52415;DHT22;38340;52.964;6.086;2024-01-10T01:09:51;-5.10;99.90
52415;DHT22;38340;52.964;6.086;2024-01-10T01:12:17;-5.10;99.90
52415;DHT22;38340;52.964;6.086;2024-01-10T01:14:43;-5.10;99.90
52415;DHT22;38340;52.964;6.086;2024-01-10T01:17:09;-5.10;99.90
52415;DHT22;38340;52.964;6.086;2024-01-10T01:19:34;-5.10;99.90
52415;DHT22;38340;52.964;6.086;2024-01-10T01:22:00;-5.10;99.90
52415;DHT22;38340;52.964;6.086;2024-01-10T01:24:26;-5.00;99.90
52415;DHT22;38340;52.964;6.086;2024-01-10T01:26:52;-5.00;99.90
52415;DHT22;38340;52.964;6.086;2024-01-10T01:29:18;-5.00;99.90
52415;DHT22;38340;52.964;6.086;2024-01-10T01:31:44;-5.00;99.90
52415;DHT22;38340;52.964;6.086;2024-01-10T01:34:09;-5.00;99.90
52415;DHT22;38340;52.964;6.086;2024-01-10T01:36:35;-5.00;99.90
52415;DHT22;38340;52.964;6.086;2024-01-10T01:39:01;-5.00;99.90
52415;DHT22;38340;52.964;6.086;2024-01-10T01:41:26;-5.00;99.90
52415;DHT22;38340;52.964;6.086;2024-01-10T01:43:52;-5.00;99.90
52415;DHT22;38340;52.964;6.086;2024-01-10T01:46:18;-5.10;99.90
52415;DHT22;38340;52.964;6.086;2024-01-10T01:48:44;-5.10;99.90
52415;DHT22;38340;52.964;6.086;2024-01-10T01:51:11;-5.10;99.90
52415;DHT22;38340;52.964;6.086;2024-01-10T01:53:38;-5.10;99.90
52415;DHT22;38340;52.964;6.086;2024-01-10T01:56:08;-5.10;99.90
52415;DHT22;38340;52.964;6.086;2024-01-10T01:58:36;-5.10;99.90
52415;DHT22;38340;52.964;6.086;2024-01-10T02:01:03;-5.10;99.90
52415;DHT22;38340;52.964;6.086;2024-01-10T02:03:33;-5.10;99.90
52415;DHT22;38340;52.964;6.086;2024-01-10T02:06:00;-5.10;99.90
52415;DHT22;38340;52.964;6.086;2024-01-10T02:08:32;-5.20;99.90
52415;DHT22;38340;52.964;6.086;2024-01-10T02:10:58;-5.20;99.90
52415;DHT22;38340;52.964;6.086;2024-01-10T02:13:24;-5.20;99.90
52415;DHT22;38340;52.964;6.086;2024-01-10T02:15:51;-5.10;99.90
52415;DHT22;38340;52.964;6.086;2024-01-10T02:18:17;-5.20;99.90
52415;DHT22;38340;52.964;6.086;2024-01-10T02:20:44;-5.20;99.90
52415;DHT22;38340;52.964;6.086;2024-01-10T02:23:10;-5.20;99.90
52415;DHT22;38340;52.964;6.086;2024-01-10T02:25:37;-5.20;99.90
52415;DHT22;38340;52.964;6.086;2024-01-10T02:28:03;-5.10;99.90
52415;DHT22;38340;52.964;6.086;2024-01-10T02:30:28;-5.10;99.90
52415;DHT22;38340;52.964;6.086;2024-01-10T02:32:54;-5.10;99.90
52415;DHT22;38340;52.964;6.086;2024-01-10T02:35:20;-5.10;99.90
52415;DHT22;38340;52.964;6.086;2024-01-10T02:37:45;-5.10;99.90
52415;DHT22;38340;52.964;6.086;2024-01-10T02:40:11;-5.00;99.90
52415;DHT22;38340;52.964;6.086;2024-01-10T02:42:37;-5.00;99.90
52415;DHT22;38340;52.964;6.086;2024-01-10T02:45:04;-5.00;99.90
52415;DHT22;38340;52.964;6.086;2024-01-10T02:47:29;-5.00;99.90
52415;DHT22;38340;52.964;6.086;2024-01-10T02:49:55;-5.00;99.90
52415;DHT22;38340;52.964;6.086;2024-01-10T02:52:21;-5.00;99.90
52415;DHT22;38340;52.964;6.086;2024-01-10T02:54:47;-5.00;99.90
52415;DHT22;38340;52.964;6.086;2024-01-10T02:57:13;-5.10;99.90
52415;DHT22;38340;52.964;6.086;2024-01-10T02:59:39;-5.00;99.90
52415;DHT22;38340;52.964;6.086;2024-01-10T03:02:04;-5.00;99.90
52415;DHT22;38340;52.964;6.086;2024-01-10T03:04:30;-5.00;99.90
52415;DHT22;38340;52.964;6.086;2024-01-10T03:06:55;-5.10;99.90
52415;DHT22;38340;52.964;6.086;2024-01-10T03:09:22;-5.00;99.90
52415;DHT22;38340;52.964;6.086;2024-01-10T03:11:48;-5.00;99.90
52415;DHT22;38340;52.964;6.086;2024-01-10T03:14:14;-5.00;99.90
52415;DHT22;38340;52.964;6.086;2024-01-10T03:16:40;-5.00;99.90
52415;DHT22;38340;52.964;6.086;2024-01-10T03:19:06;-4.90;99.90
52415;DHT22;38340;52.964;6.086;2024-01-10T03:21:31;-4.90;99.90
52415;DHT22;38340;52.964;6.086;2024-01-10T03:23:58;-4.90;99.90
52415;DHT22;38340;52.964;6.086;2024-01-10T03:26:25;-4.90;99.90
52415;DHT22;38340;52.964;6.086;2024-01-10T03:28:51;-5.00;99.90
52415;DHT22;38340;52.964;6.086;2024-01-10T03:31:17;-5.00;99.90
52415;DHT22;38340;52.964;6.086;2024-01-10T03:33:43;-5.00;99.90
52415;DHT22;38340;52.964;6.086;2024-01-10T03:36:12;-5.00;99.90
52415;DHT22;38340;52.964;6.086;2024-01-10T03:38:39;-5.00;99.90
52415;DHT22;38340;52.964;6.086;2024-01-10T03:41:04;-5.00;99.90
52415;DHT22;38340;52.964;6.086;2024-01-10T03:43:30;-5.00;99.90
52415;DHT22;38340;52.964;6.086;2024-01-10T03:45:57;-5.00;99.90
52415;DHT22;38340;52.964;6.086;2024-01-10T03:48:22;-5.00;99.90
52415;DHT22;38340;52.964;6.086;2024-01-10T03:50:48;-5.00;99.90
52415;DHT22;38340;52.964;6.086;2024-01-10T03:53:14;-5.00;99.90
52415;DHT22;38340;52.964;6.086;2024-01-10T03:55:40;-5.00;99.90
52415;DHT22;38340;52.964;6.086;2024-01-10T03:58:05;-5.00;99.90
52415;DHT22;38340;52.964;6.086;2024-01-10T04:00:31;-4.90;99.90
52415;DHT22;38340;52.964;6.086;2024-01-10T04:02:57;-5.00;99.90
52415;DHT22;38340;52.964;6.086;2024-01-10T04:05:22;-5.00;99.90
52415;DHT22;38340;52.964;6.086;2024-01-10T04:07:51;-5.00;99.90
52415;DHT22;38340;52.964;6.086;2024-01-10T04:10:17;-5.00;99.90
52415;DHT22;38340;52.964;6.086;2024-01-10T04:12:44;-4.90;99.90
52415;DHT22;38340;52.964;6.086;2024-01-10T04:15:10;-4.90;99.90
52415;DHT22;38340;52.964;6.086;2024-01-10T04:17:36;-5.00;99.90
52415;DHT22;38340;52.964;6.086;2024-01-10T04:20:02;-5.00;99.90
52415;DHT22;38340;52.964;6.086;2024-01-10T04:22:28;-4.90;99.90
52415;DHT22;38340;52.964;6.086;2024-01-10T04:24:57;-4.90;99.90
52415;DHT22;38340;52.964;6.086;2024-01-10T04:27:23;-5.00;99.90
52415;DHT22;38340;52.964;6.086;2024-01-10T04:29:48;-5.00;99.90
52415;DHT22;38340;52.964;6.086;2024-01-10T04:32:14;-5.00;99.90
52415;DHT22;38340;52.964;6.086;2024-01-10T04:34:40;-5.00;99.90
52415;DHT22;38340;52.964;6.086;2024-01-10T04:37:06;-5.00;99.90
52415;DHT22;38340;52.964;6.086;2024-01-10T04:39:35;-5.00;99.90
52415;DHT22;38340;52.964;6.086;2024-01-10T04:42:04;-5.00;99.90
52415;DHT22;38340;52.964;6.086;2024-01-10T04:44:30;-5.00;99.90
52415;DHT22;38340;52.964;6.086;2024-01-10T04:46:56;-5.00;99.90
52415;DHT22;38340;52.964;6.086;2024-01-10T04:49:22;-5.00;99.90
52415;DHT22;38340;52.964;6.086;2024-01-10T04:51:49;-5.00;99.90
52415;DHT22;38340;52.964;6.086;2024-01-10T04:54:15;-4.90;99.90
52415;DHT22;38340;52.964;6.086;2024-01-10T04:56:41;-5.00;99.90
52415;DHT22;38340;52.964;6.086;2024-01-10T04:59:06;-5.00;99.90
52415;DHT22;38340;52.964;6.086;2024-01-10T05:01:32;-5.00;99.90
52415;DHT22;38340;52.964;6.086;2024-01-10T05:03:58;-5.10;99.90
52415;DHT22;38340;52.964;6.086;2024-01-10T05:06:24;-5.00;99.90
52415;DHT22;38340;52.964;6.086;2024-01-10T05:08:50;-5.00;99.90
52415;DHT22;38340;52.964;6.086;2024-01-10T05:11:16;-5.10;99.90
52415;DHT22;38340;52.964;6.086;2024-01-10T05:13:44;-5.00;99.90
52415;DHT22;38340;52.964;6.086;2024-01-10T05:16:10;-5.10;99.90
52415;DHT22;38340;52.964;6.086;2024-01-10T05:18:36;-5.00;99.90
52415;DHT22;38340;52.964;6.086;2024-01-10T05:21:02;-5.10;99.90
52415;DHT22;38340;52.964;6.086;2024-01-10T05:23:29;-5.10;99.90
52415;DHT22;38340;52.964;6.086;2024-01-10T05:25:55;-5.10;99.90
52415;DHT22;38340;52.964;6.086;2024-01-10T05:28:21;-5.10;99.90
52415;DHT22;38340;52.964;6.086;2024-01-10T05:30:46;-5.10;99.90
52415;DHT22;38340;52.964;6.086;2024-01-10T05:33:12;-5.10;99.90
52415;DHT22;38340;52.964;6.086;2024-01-10T05:35:38;-5.10;99.90
52415;DHT22;38340;52.964;6.086;2024-01-10T05:38:04;-5.10;99.90
52415;DHT22;38340;52.964;6.086;2024-01-10T05:40:30;-5.00;99.90
52415;DHT22;38340;52.964;6.086;2024-01-10T05:42:57;-5.00;99.90
52415;DHT22;38340;52.964;6.086;2024-01-10T05:45:23;-5.00;99.90
52415;DHT22;38340;52.964;6.086;2024-01-10T05:47:49;-5.00;99.90
52415;DHT22;38340;52.964;6.086;2024-01-10T05:50:14;-5.00;99.90
52415;DHT22;38340;52.964;6.086;2024-01-10T05:52:40;-5.00;99.90
52415;DHT22;38340;52.964;6.086;2024-01-10T05:55:06;-5.00;99.90
52415;DHT22;38340;52.964;6.086;2024-01-10T05:57:34;-5.00;99.90
52415;DHT22;38340;52.964;6.086;2024-01-10T06:00:00;-5.00;99.90
52415;DHT22;38340;52.964;6.086;2024-01-10T06:02:26;-5.00;99.90
52415;DHT22;38340;52.964;6.086;2024-01-10T06:04:52;-5.00;99.90
52415;DHT22;38340;52.964;6.086;2024-01-10T06:07:18;-5.00;99.90
52415;DHT22;38340;52.964;6.086;2024-01-10T06:09:44;-5.00;99.90
52415;DHT22;38340;52.964;6.086;2024-01-10T06:12:10;-5.00;99.90
52415;DHT22;38340;52.964;6.086;2024-01-10T06:14:36;-5.00;99.90
52415;DHT22;38340;52.964;6.086;2024-01-10T06:17:02;-5.00;99.90
52415;DHT22;38340;52.964;6.086;2024-01-10T06:19:30;-5.00;99.90
52415;DHT22;38340;52.964;6.086;2024-01-10T06:21:57;-5.00;99.90
52415;DHT22;38340;52.964;6.086;2024-01-10T06:24:23;-5.00;99.90
52415;DHT22;38340;52.964;6.086;2024-01-10T06:26:48;-4.90;99.90
52415;DHT22;38340;52.964;6.086;2024-01-10T06:29:15;-4.90;99.90
52415;DHT22;38340;52.964;6.086;2024-01-10T06:31:41;-4.90;99.90
52415;DHT22;38340;52.964;6.086;2024-01-10T06:34:08;-4.90;99.90
52415;DHT22;38340;52.964;6.086;2024-01-10T06:36:34;-4.90;99.90
52415;DHT22;38340;52.964;6.086;2024-01-10T06:39:00;-4.90;99.90
52415;DHT22;38340;52.964;6.086;2024-01-10T06:41:25;-4.90;99.90
52415;DHT22;38340;52.964;6.086;2024-01-10T06:43:52;-4.90;99.90
52415;DHT22;38340;52.964;6.086;2024-01-10T06:46:18;-5.00;99.90
52415;DHT22;38340;52.964;6.086;2024-01-10T06:48:44;-5.00;99.90
52415;DHT22;38340;52.964;6.086;2024-01-10T06:51:13;-4.90;99.90
52415;DHT22;38340;52.964;6.086;2024-01-10T06:53:39;-5.00;99.90
52415;DHT22;38340;52.964;6.086;2024-01-10T06:56:06;-4.90;99.90
52415;DHT22;38340;52.964;6.086;2024-01-10T06:58:32;-4.90;99.90
52415;DHT22;38340;52.964;6.086;2024-01-10T07:00:58;-5.00;99.90
52415;DHT22;38340;52.964;6.086;2024-01-10T07:03:26;-5.00;99.90
52415;DHT22;38340;52.964;6.086;2024-01-10T07:05:51;-5.00;99.90
52415;DHT22;38340;52.964;6.086;2024-01-10T07:08:17;-5.00;99.90
52415;DHT22;38340;52.964;6.086;2024-01-10T07:10:43;-5.00;99.90
52415;DHT22;38340;52.964;6.086;2024-01-10T07:13:09;-5.00;99.90
52415;DHT22;38340;52.964;6.086;2024-01-10T07:15:35;-5.00;99.90
52415;DHT22;38340;52.964;6.086;2024-01-10T07:18:00;-5.10;99.90
52415;DHT22;38340;52.964;6.086;2024-01-10T07:20:26;-5.10;99.90
52415;DHT22;38340;52.964;6.086;2024-01-10T07:22:52;-5.10;99.90
52415;DHT22;38340;52.964;6.086;2024-01-10T07:25:18;-5.10;99.90
52415;DHT22;38340;52.964;6.086;2024-01-10T07:27:44;-5.10;99.90
52415;DHT22;38340;52.964;6.086;2024-01-10T07:30:10;-5.10;99.90
52415;DHT22;38340;52.964;6.086;2024-01-10T07:32:43;-5.10;99.90
52415;DHT22;38340;52.964;6.086;2024-01-10T07:35:10;-5.10;99.90
52415;DHT22;38340;52.964;6.086;2024-01-10T07:37:45;-5.10;99.90
52415;DHT22;38340;52.964;6.086;2024-01-10T07:40:11;-5.10;99.90
52415;DHT22;38340;52.964;6.086;2024-01-10T07:42:38;-5.00;99.90
52415;DHT22;38340;52.964;6.086;2024-01-10T07:45:05;-5.10;99.90
52415;DHT22;38340;52.964;6.086;2024-01-10T07:47:31;-5.10;99.90
52415;DHT22;38340;52.964;6.086;2024-01-10T07:49:57;-5.10;99.90
52415;DHT22;38340;52.964;6.086;2024-01-10T07:52:23;-5.10;99.90
52415;DHT22;38340;52.964;6.086;2024-01-10T07:54:49;-5.10;99.90
52415;DHT22;38340;52.964;6.086;2024-01-10T07:57:15;-5.10;99.90
52415;DHT22;38340;52.964;6.086;2024-01-10T07:59:44;-5.00;99.90
52415;DHT22;38340;52.964;6.086;2024-01-10T08:02:10;-5.00;99.90
52415;DHT22;38340;52.964;6.086;2024-01-10T08:04:37;-5.00;99.90
52415;DHT22;38340;52.964;6.086;2024-01-10T08:07:03;-5.00;99.90
52415;DHT22;38340;52.964;6.086;2024-01-10T08:09:29;-5.00;99.90
52415;DHT22;38340;52.964;6.086;2024-01-10T08:11:55;-4.90;99.90
52415;DHT22;38340;52.964;6.086;2024-01-10T08:14:20;-4.90;99.90
52415;DHT22;38340;52.964;6.086;2024-01-10T08:16:46;-4.90;99.90
52415;DHT22;38340;52.964;6.086;2024-01-10T08:19:12;-4.90;99.90
52415;DHT22;38340;52.964;6.086;2024-01-10T08:21:37;-4.90;99.90
52415;DHT22;38340;52.964;6.086;2024-01-10T08:24:03;-4.80;99.90
52415;DHT22;38340;52.964;6.086;2024-01-10T08:26:30;-4.80;99.90
52415;DHT22;38340;52.964;6.086;2024-01-10T08:28:56;-4.80;99.90
52415;DHT22;38340;52.964;6.086;2024-01-10T08:31:22;-4.70;99.90
52415;DHT22;38340;52.964;6.086;2024-01-10T08:33:48;-4.70;99.90
52415;DHT22;38340;52.964;6.086;2024-01-10T08:36:14;-4.70;99.90
52415;DHT22;38340;52.964;6.086;2024-01-10T08:38:41;-4.70;99.90
52415;DHT22;38340;52.964;6.086;2024-01-10T08:41:10;-4.70;99.90
52415;DHT22;38340;52.964;6.086;2024-01-10T08:43:37;-4.70;99.90
52415;DHT22;38340;52.964;6.086;2024-01-10T08:46:03;-4.70;99.90
52415;DHT22;38340;52.964;6.086;2024-01-10T08:48:29;-4.60;99.90
52415;DHT22;38340;52.964;6.086;2024-01-10T08:50:55;-4.60;99.90
52415;DHT22;38340;52.964;6.086;2024-01-10T08:53:22;-4.50;99.90
52415;DHT22;38340;52.964;6.086;2024-01-10T08:55:48;-4.40;99.90
52415;DHT22;38340;52.964;6.086;2024-01-10T08:58:14;-4.40;99.90
52415;DHT22;38340;52.964;6.086;2024-01-10T09:00:39;-4.30;99.90
52415;DHT22;38340;52.964;6.086;2024-01-10T09:03:05;-4.20;99.90
52415;DHT22;38340;52.964;6.086;2024-01-10T09:05:31;-4.10;99.90
52415;DHT22;38340;52.964;6.086;2024-01-10T09:07:58;-4.10;99.90
52415;DHT22;38340;52.964;6.086;2024-01-10T09:10:23;-4.00;99.90
52415;DHT22;38340;52.964;6.086;2024-01-10T09:12:53;-4.00;99.90
52415;DHT22;38340;52.964;6.086;2024-01-10T09:15:19;-3.90;99.90
52415;DHT22;38340;52.964;6.086;2024-01-10T09:17:45;-3.90;99.90
52415;DHT22;38340;52.964;6.086;2024-01-10T09:20:12;-3.90;99.90
52415;DHT22;38340;52.964;6.086;2024-01-10T09:22:38;-3.80;99.90
52415;DHT22;38340;52.964;6.086;2024-01-10T09:25:07;-3.80;99.90
52415;DHT22;38340;52.964;6.086;2024-01-10T09:27:34;-3.80;99.90
52415;DHT22;38340;52.964;6.086;2024-01-10T09:30:01;-3.80;99.90
52415;DHT22;38340;52.964;6.086;2024-01-10T09:32:28;-3.70;99.90
52415;DHT22;38340;52.964;6.086;2024-01-10T09:34:56;-3.70;99.90
52415;DHT22;38340;52.964;6.086;2024-01-10T09:37:23;-3.70;99.90
52415;DHT22;38340;52.964;6.086;2024-01-10T09:39:49;-3.70;99.90
52415;DHT22;38340;52.964;6.086;2024-01-10T09:42:15;-3.70;99.90
52415;DHT22;38340;52.964;6.086;2024-01-10T09:44:41;-3.70;99.90
52415;DHT22;38340;52.964;6.086;2024-01-10T09:47:07;-3.70;99.90
52415;DHT22;38340;52.964;6.086;2024-01-10T09:49:34;-3.70;99.90
52415;DHT22;38340;52.964;6.086;2024-01-10T09:52:04;-3.70;99.90
52415;DHT22;38340;52.964;6.086;2024-01-10T09:54:30;-3.60;99.90
52415;DHT22;38340;52.964;6.086;2024-01-10T09:56:57;-3.60;99.90
52415;DHT22;38340;52.964;6.086;2024-01-10T09:59:23;-3.60;99.90
52415;DHT22;38340;52.964;6.086;2024-01-10T10:01:51;-3.50;99.90
52415;DHT22;38340;52.964;6.086;2024-01-10T10:04:18;-3.50;99.90
52415;DHT22;38340;52.964;6.086;2024-01-10T10:06:45;-3.50;99.90
52415;DHT22;38340;52.964;6.086;2024-01-10T10:09:12;-3.40;99.90
52415;DHT22;38340;52.964;6.086;2024-01-10T10:11:38;-3.30;99.90
52415;DHT22;38340;52.964;6.086;2024-01-10T10:14:18;-3.40;99.90
52415;DHT22;38340;52.964;6.086;2024-01-10T10:16:44;-3.30;99.90
52415;DHT22;38340;52.964;6.086;2024-01-10T10:19:10;-3.30;99.90
52415;DHT22;38340;52.964;6.086;2024-01-10T10:21:37;-3.20;99.90
52415;DHT22;38340;52.964;6.086;2024-01-10T10:24:03;-3.20;99.90
52415;DHT22;38340;52.964;6.086;2024-01-10T10:26:32;-3.10;99.90
52415;DHT22;38340;52.964;6.086;2024-01-10T10:28:59;-3.10;99.90
52415;DHT22;38340;52.964;6.086;2024-01-10T10:31:25;-3.10;99.90
52415;DHT22;38340;52.964;6.086;2024-01-10T10:33:52;-3.00;99.90
52415;DHT22;38340;52.964;6.086;2024-01-10T10:36:18;-3.00;99.90
52415;DHT22;38340;52.964;6.086;2024-01-10T10:38:47;-3.00;99.90
52415;DHT22;38340;52.964;6.086;2024-01-10T10:41:16;-2.90;99.90
52415;DHT22;38340;52.964;6.086;2024-01-10T10:43:43;-2.90;99.90
52415;DHT22;38340;52.964;6.086;2024-01-10T10:46:11;-2.80;99.90
52415;DHT22;38340;52.964;6.086;2024-01-10T10:48:40;-2.80;99.90
52415;DHT22;38340;52.964;6.086;2024-01-10T10:53:37;-2.70;99.90
52415;DHT22;38340;52.964;6.086;2024-01-10T10:56:05;-2.70;99.90
52415;DHT22;38340;52.964;6.086;2024-01-10T10:58:36;-2.70;99.90
52415;DHT22;38340;52.964;6.086;2024-01-10T11:01:04;-2.50;99.90
52415;DHT22;38340;52.964;6.086;2024-01-10T11:03:37;-2.60;99.90
52415;DHT22;38340;52.964;6.086;2024-01-10T11:06:05;-2.50;99.90
52415;DHT22;38340;52.964;6.086;2024-01-10T11:17:26;-2.40;99.90
52415;DHT22;38340;52.964;6.086;2024-01-10T11:25:53;-2.30;99.90
52415;DHT22;38340;52.964;6.086;2024-01-10T11:28:20;-2.20;99.90
52415;DHT22;38340;52.964;6.086;2024-01-10T11:30:50;-2.10;99.90
52415;DHT22;38340;52.964;6.086;2024-01-10T11:33:21;-2.10;99.90
52415;DHT22;38340;52.964;6.086;2024-01-10T11:38:32;-2.00;99.90
52415;DHT22;38340;52.964;6.086;2024-01-10T11:40:58;-1.90;99.90
52415;DHT22;38340;52.964;6.086;2024-01-10T11:43:24;-2.00;99.90
52415;DHT22;38340;52.964;6.086;2024-01-10T11:45:55;-2.00;99.90
52415;DHT22;38340;52.964;6.086;2024-01-10T11:48:28;-2.00;99.90
52415;DHT22;38340;52.964;6.086;2024-01-10T11:50:56;-1.90;28.50
52415;DHT22;38340;52.964;6.086;2024-01-10T11:53:38;-1.90;1.00
52415;DHT22;38340;52.964;6.086;2024-01-10T11:56:12;-1.90;1.00
52415;DHT22;38340;52.964;6.086;2024-01-10T11:59:13;-1.90;99.90
52415;DHT22;38340;52.964;6.086;2024-01-10T12:01:42;-1.80;99.90
52415;DHT22;38340;52.964;6.086;2024-01-10T12:04:08;-1.70;99.90
52415;DHT22;38340;52.964;6.086;2024-01-10T12:06:35;-1.70;99.90
52415;DHT22;38340;52.964;6.086;2024-01-10T12:09:02;-1.70;99.90
52415;DHT22;38340;52.964;6.086;2024-01-10T12:11:30;-1.60;99.90
52415;DHT22;38340;52.964;6.086;2024-01-10T12:13:56;-1.60;99.90
52415;DHT22;38340;52.964;6.086;2024-01-10T12:16:23;-1.60;99.90
52415;DHT22;38340;52.964;6.086;2024-01-10T12:18:49;-1.50;99.90
52415;DHT22;38340;52.964;6.086;2024-01-10T12:21:14;-1.50;99.90
52415;DHT22;38340;52.964;6.086;2024-01-10T12:23:40;-1.50;99.90
52415;DHT22;38340;52.964;6.086;2024-01-10T12:26:09;-1.50;63.10
52415;DHT22;38340;52.964;6.086;2024-01-10T12:28:38;-1.40;93.60
52415;DHT22;38340;52.964;6.086;2024-01-10T12:31:05;-1.40;24.30
52415;DHT22;38340;52.964;6.086;2024-01-10T12:33:33;-1.30;1.00
52415;DHT22;38340;52.964;6.086;2024-01-10T12:36:11;-1.30;1.00
52415;DHT22;38340;52.964;6.086;2024-01-10T12:38:40;-1.30;99.90
52415;DHT22;38340;52.964;6.086;2024-01-10T12:41:06;-1.30;99.90
52415;DHT22;38340;52.964;6.086;2024-01-10T12:43:34;-1.30;99.90
52415;DHT22;38340;52.964;6.086;2024-01-10T12:48:32;-1.20;99.90
52415;DHT22;38340;52.964;6.086;2024-01-10T12:51:07;-1.20;99.90
52415;DHT22;38340;52.964;6.086;2024-01-10T12:53:37;-1.20;99.90
52415;DHT22;38340;52.964;6.086;2024-01-10T12:56:04;-1.20;99.90
52415;DHT22;38340;52.964;6.086;2024-01-10T12:58:31;-1.10;99.90
52415;DHT22;38340;52.964;6.086;2024-01-10T13:00:57;-1.10;99.90
52415;DHT22;38340;52.964;6.086;2024-01-10T13:03:24;-1.10;99.90
52415;DHT22;38340;52.964;6.086;2024-01-10T13:05:50;-1.10;99.90
52415;DHT22;38340;52.964;6.086;2024-01-10T13:08:16;-1.00;99.90
52415;DHT22;38340;52.964;6.086;2024-01-10T13:10:42;-1.00;99.90
52415;DHT22;38340;52.964;6.086;2024-01-10T13:13:08;-1.00;99.90
52415;DHT22;38340;52.964;6.086;2024-01-10T13:15:34;-1.00;99.90
52415;DHT22;38340;52.964;6.086;2024-01-10T13:18:00;-0.90;99.90
52415;DHT22;38340;52.964;6.086;2024-01-10T13:20:25;-0.90;99.90
52415;DHT22;38340;52.964;6.086;2024-01-10T13:22:51;-0.90;99.90
52415;DHT22;38340;52.964;6.086;2024-01-10T13:25:18;-0.90;99.90
52415;DHT22;38340;52.964;6.086;2024-01-10T13:27:46;-0.90;99.90
52415;DHT22;38340;52.964;6.086;2024-01-10T13:30:11;-0.90;99.90
52415;DHT22;38340;52.964;6.086;2024-01-10T13:32:37;-0.90;99.90
52415;DHT22;38340;52.964;6.086;2024-01-10T13:35:06;-0.90;99.90
52415;DHT22;38340;52.964;6.086;2024-01-10T13:37:32;-0.90;99.90
52415;DHT22;38340;52.964;6.086;2024-01-10T13:39:58;-0.90;99.90
52415;DHT22;38340;52.964;6.086;2024-01-10T13:42:24;-1.00;99.90
52415;DHT22;38340;52.964;6.086;2024-01-10T13:44:50;-0.90;99.90
52415;DHT22;38340;52.964;6.086;2024-01-10T13:47:20;-0.90;99.90
52415;DHT22;38340;52.964;6.086;2024-01-10T13:49:49;-0.90;99.90
52415;DHT22;38340;52.964;6.086;2024-01-10T13:52:15;-0.90;99.90
52415;DHT22;38340;52.964;6.086;2024-01-10T13:54:40;-0.90;99.90
52415;DHT22;38340;52.964;6.086;2024-01-10T13:57:06;-0.90;99.90
52415;DHT22;38340;52.964;6.086;2024-01-10T13:59:33;-0.90;99.90
52415;DHT22;38340;52.964;6.086;2024-01-10T14:01:58;-0.90;99.90
52415;DHT22;38340;52.964;6.086;2024-01-10T14:04:25;-0.90;99.90
52415;DHT22;38340;52.964;6.086;2024-01-10T14:06:50;-0.90;99.90
52415;DHT22;38340;52.964;6.086;2024-01-10T14:09:16;-0.90;99.90
52415;DHT22;38340;52.964;6.086;2024-01-10T14:11:43;-1.00;99.90
52415;DHT22;38340;52.964;6.086;2024-01-10T14:14:15;-0.90;99.90
52415;DHT22;38340;52.964;6.086;2024-01-10T14:16:41;-0.90;99.90
52415;DHT22;38340;52.964;6.086;2024-01-10T14:19:07;-0.90;99.90
52415;DHT22;38340;52.964;6.086;2024-01-10T14:21:33;-1.00;99.90
52415;DHT22;38340;52.964;6.086;2024-01-10T14:23:59;-1.00;99.90
52415;DHT22;38340;52.964;6.086;2024-01-10T14:26:24;-1.00;99.90
52415;DHT22;38340;52.964;6.086;2024-01-10T14:28:52;-1.00;99.90
52415;DHT22;38340;52.964;6.086;2024-01-10T14:31:21;-1.00;99.90
52415;DHT22;38340;52.964;6.086;2024-01-10T14:33:47;-1.10;1.00
52415;DHT22;38340;52.964;6.086;2024-01-10T14:36:13;-1.10;1.00
52415;DHT22;38340;52.964;6.086;2024-01-10T14:38:39;-1.10;1.00
52415;DHT22;38340;52.964;6.086;2024-01-10T14:41:06;-1.10;1.00
52415;DHT22;38340;52.964;6.086;2024-01-10T14:43:32;-1.00;1.00
52415;DHT22;38340;52.964;6.086;2024-01-10T14:45:58;-1.20;1.00
52415;DHT22;38340;52.964;6.086;2024-01-10T14:48:23;-1.20;1.00
52415;DHT22;38340;52.964;6.086;2024-01-10T14:50:49;-1.20;4.90
52415;DHT22;38340;52.964;6.086;2024-01-10T14:53:15;-1.30;78.50
52415;DHT22;38340;52.964;6.086;2024-01-10T14:55:40;-1.40;96.30
52415;DHT22;38340;52.964;6.086;2024-01-10T14:58:06;-1.40;99.90
52415;DHT22;38340;52.964;6.086;2024-01-10T15:00:34;-1.40;99.90
52415;DHT22;38340;52.964;6.086;2024-01-10T15:03:00;-1.40;99.90
52415;DHT22;38340;52.964;6.086;2024-01-10T15:05:26;-1.50;99.90
52415;DHT22;38340;52.964;6.086;2024-01-10T15:07:52;-1.50;99.90
52415;DHT22;38340;52.964;6.086;2024-01-10T15:10:18;-1.50;99.90
52415;DHT22;38340;52.964;6.086;2024-01-10T15:12:43;-1.60;99.90
52415;DHT22;38340;52.964;6.086;2024-01-10T15:15:09;-1.60;99.90
52415;DHT22;38340;52.964;6.086;2024-01-10T15:17:36;-1.70;99.90
52415;DHT22;38340;52.964;6.086;2024-01-10T15:20:02;-1.70;99.90
52415;DHT22;38340;52.964;6.086;2024-01-10T15:22:29;-1.70;99.90
52415;DHT22;38340;52.964;6.086;2024-01-10T15:24:54;-1.80;99.90
52415;DHT22;38340;52.964;6.086;2024-01-10T15:27:20;-1.90;1.00
52415;DHT22;38340;52.964;6.086;2024-01-10T15:29:46;-1.90;1.00
52415;DHT22;38340;52.964;6.086;2024-01-10T15:32:11;-2.00;1.00
52415;DHT22;38340;52.964;6.086;2024-01-10T15:34:37;-2.00;1.00
52415;DHT22;38340;52.964;6.086;2024-01-10T15:37:03;-2.00;1.00
52415;DHT22;38340;52.964;6.086;2024-01-10T15:39:29;-2.10;1.00
52415;DHT22;38340;52.964;6.086;2024-01-10T15:41:55;-2.10;29.00
52415;DHT22;38340;52.964;6.086;2024-01-10T15:44:21;-2.20;54.10
52415;DHT22;38340;52.964;6.086;2024-01-10T15:46:47;-2.20;74.10
52415;DHT22;38340;52.964;6.086;2024-01-10T15:49:13;-2.20;99.90
52415;DHT22;38340;52.964;6.086;2024-01-10T15:51:38;-2.20;99.90